Time;durP1;ratioP1;P1;durP2;ratioP2;P2;SDS_P1;SDS_P2;PMS_P1;PMS_P2;Temp;Humidity;BMP_temperature;BMP_pressure;BME280_temperature;BME280_humidity;BME280_pressure;Samples;Min_cycle;Max_cycle;Signal;HPM_P1;HPM_P2
2021/01/06 00:02:01;;;;;;;0.00;0.00;;;;;;;;;;4963889;28;20033;-75
2021/01/06 00:04:27;;;;;;;0.10;0.10;;;;;;;;;;4976987;28;21405;-75
2021/01/06 00:06:53;;;;;;;0.00;0.00;;;;;;;;;;4964812;28;20026;-76
2021/01/06 00:09:19;;;;;;;0.00;0.00;;;;;;;;;;4955296;28;20034;-72
2021/01/06 00:11:44;;;;;;;0.00;0.00;;;;;;;;;;4975102;28;20034;-73
2021/01/06 00:14:11;;;;;;;0.00;0.00;;;;;;;;;;4975950;28;20030;-74
2021/01/06 00:16:38;;;;;;;0.00;0.00;;;;;;;;;;4975825;28;20026;-75
2021/01/06 00:19:05;;;;;;;0.65;0.65;;;;;;;;;;4961860;28;20524;-72
2021/01/06 00:21:30;;;;;;;0.00;0.00;;;;;;;;;;4974814;28;20435;-74
2021/01/06 00:23:56;;;;;;;0.00;0.00;;;;;;;;;;4960338;28;20136;-75
2021/01/06 00:26:21;;;;;;;0.00;0.00;;;;;;;;;;4974375;28;20046;-75
2021/01/06 00:28:48;;;;;;;0.00;0.00;;;;;;;;;;4974760;28;20045;-74
2021/01/06 00:31:14;;;;;;;0.00;0.00;;;;;;;;;;4961101;28;20120;-75
2021/01/06 00:33:40;;;;;;;0.00;0.00;;;;;;;;;;4962943;28;20785;-74
2021/01/06 00:36:16;;;;;;;0.00;0.00;;;;;;;;;;4975063;28;20029;-74
2021/01/06 00:38:42;;;;;;;0.00;0.00;;;;;;;;;;4976193;28;20036;-74
2021/01/06 00:41:08;;;;;;;0.52;0.52;;;;;;;;;;4960391;28;20053;-74
2021/01/06 00:43:34;;;;;;;0.00;0.00;;;;;;;;;;4960063;28;20034;-74
2021/01/06 00:46:00;;;;;;;0.00;0.00;;;;;;;;;;4973561;28;20077;-73
2021/01/06 00:48:25;;;;;;;0.00;0.00;;;;;;;;;;4978509;28;20043;-75
2021/01/06 00:50:51;;;;;;;0.00;0.00;;;;;;;;;;4976546;28;20041;-75
2021/01/06 00:53:23;;;;;;;0.00;0.00;;;;;;;;;;4974025;28;20038;-74
2021/01/06 00:55:49;;;;;;;0.00;0.00;;;;;;;;;;4958839;28;20037;-75
2021/01/06 00:58:14;;;;;;;0.00;0.00;;;;;;;;;;4959769;28;20018;-75
2021/01/06 01:00:41;;;;;;;0.00;0.00;;;;;;;;;;4974954;28;20030;-76
2021/01/06 01:03:07;;;;;;;0.00;0.00;;;;;;;;;;4975159;28;20030;-73
2021/01/06 01:05:33;;;;;;;0.00;0.00;;;;;;;;;;4960401;28;20064;-74
2021/01/06 01:07:58;;;;;;;0.00;0.00;;;;;;;;;;4973606;28;20461;-74
2021/01/06 01:10:26;;;;;;;0.00;0.00;;;;;;;;;;4975745;28;20030;-73
2021/01/06 01:12:52;;;;;;;0.00;0.00;;;;;;;;;;4978753;28;20026;-73
2021/01/06 01:15:19;;;;;;;0.00;0.00;;;;;;;;;;4978821;28;20551;-74
2021/01/06 01:17:45;;;;;;;0.00;0.00;;;;;;;;;;4978134;28;20065;-72
2021/01/06 01:20:12;;;;;;;0.00;0.00;;;;;;;;;;4977604;28;20125;-73
2021/01/06 01:22:37;;;;;;;0.03;0.03;;;;;;;;;;4976105;28;20397;-74
2021/01/06 01:25:03;;;;;;;0.00;0.00;;;;;;;;;;4956771;28;20034;-74
2021/01/06 01:27:28;;;;;;;0.00;0.00;;;;;;;;;;4972536;28;20626;-75
2021/01/06 01:29:54;;;;;;;0.00;0.00;;;;;;;;;;4975115;28;21770;-75
2021/01/06 01:32:19;;;;;;;0.00;0.00;;;;;;;;;;4975314;28;20459;-74
2021/01/06 01:34:45;;;;;;;0.25;0.25;;;;;;;;;;4973512;28;20026;-76
2021/01/06 01:37:10;;;;;;;0.00;0.00;;;;;;;;;;4973468;28;20432;-75
2021/01/06 01:39:36;;;;;;;0.00;0.00;;;;;;;;;;4963098;28;20049;-75
2021/01/06 01:42:01;;;;;;;0.00;0.00;;;;;;;;;;4975908;28;20421;-77
2021/01/06 01:44:28;;;;;;;0.00;0.00;;;;;;;;;;4930536;28;20379;-75
2021/01/06 01:47:06;;;;;;;0.00;0.00;;;;;;;;;;4955771;28;20042;-74
2021/01/06 01:49:44;;;;;;;0.00;0.00;;;;;;;;;;4970602;28;20030;-75
2021/01/06 01:52:24;;;;;;;0.00;0.00;;;;;;;;;;4975687;28;20394;-75
2021/01/06 01:54:50;;;;;;;0.00;0.00;;;;;;;;;;4974020;28;20203;-74
2021/01/06 01:57:20;;;;;;;0.15;0.15;;;;;;;;;;4974726;28;20022;-74
2021/01/06 01:59:46;;;;;;;0.00;0.00;;;;;;;;;;4973666;28;20061;-75
2021/01/06 02:02:30;;;;;;;0.00;0.00;;;;;;;;;;4961780;28;20117;-73
2021/01/06 02:04:57;;;;;;;0.13;0.13;;;;;;;;;;4961096;28;20521;-75
2021/01/06 02:07:33;;;;;;;0.00;0.00;;;;;;;;;;4977030;28;20501;-73
2021/01/06 02:10:18;;;;;;;0.00;0.00;;;;;;;;;;4978356;28;20030;-75
2021/01/06 02:12:53;;;;;;;0.00;0.00;;;;;;;;;;4979966;28;20084;-74
2021/01/06 02:15:19;;;;;;;0.00;0.00;;;;;;;;;;4965121;28;20160;-74
2021/01/06 02:17:44;;;;;;;0.00;0.00;;;;;;;;;;4979317;28;20044;-74
2021/01/06 02:20:11;;;;;;;0.00;0.00;;;;;;;;;;4978582;28;20030;-73
2021/01/06 02:22:37;;;;;;;0.00;0.00;;;;;;;;;;4980276;28;20042;-74
2021/01/06 02:25:03;;;;;;;0.00;0.00;;;;;;;;;;4975717;28;20285;-74
2021/01/06 02:27:28;;;;;;;0.00;0.00;;;;;;;;;;4978120;28;20885;-74
2021/01/06 02:29:54;;;;;;;0.00;0.00;;;;;;;;;;4962746;28;20030;-74
2021/01/06 02:32:19;;;;;;;0.20;0.20;;;;;;;;;;4977791;28;20026;-75
2021/01/06 02:34:45;;;;;;;0.00;0.00;;;;;;;;;;4979736;28;20037;-74
2021/01/06 02:37:26;;;;;;;0.00;0.00;;;;;;;;;;4964381;28;20507;-73
2021/01/06 02:40:02;;;;;;;0.00;0.00;;;;;;;;;;4975908;28;20042;-76
2021/01/06 02:42:30;;;;;;;0.00;0.00;;;;;;;;;;4976517;28;20057;-75
2021/01/06 02:44:55;;;;;;;0.00;0.00;;;;;;;;;;4964233;28;20161;-75
2021/01/06 02:47:22;;;;;;;0.00;0.00;;;;;;;;;;4979222;28;20054;-74
2021/01/06 02:49:48;;;;;;;0.00;0.00;;;;;;;;;;4963419;28;20456;-74
2021/01/06 02:52:35;;;;;;;0.00;0.00;;;;;;;;;;4977370;28;20038;-74
2021/01/06 02:55:04;;;;;;;0.00;0.00;;;;;;;;;;4966530;28;20074;-75
2021/01/06 02:57:30;;;;;;;0.00;0.00;;;;;;;;;;4976409;28;20031;-73
2021/01/06 02:59:57;;;;;;;0.00;0.00;;;;;;;;;;4977254;28;20558;-75
2021/01/06 03:02:25;;;;;;;0.00;0.00;;;;;;;;;;4973952;28;20057;-75
2021/01/06 03:05:01;;;;;;;0.00;0.00;;;;;;;;;;4977070;28;20337;-76
2021/01/06 03:07:31;;;;;;;0.00;0.00;;;;;;;;;;4975443;28;20149;-74
2021/01/06 03:09:57;;;;;;;0.00;0.00;;;;;;;;;;4977144;28;20506;-73
2021/01/06 03:12:31;;;;;;;0.00;0.00;;;;;;;;;;4975754;28;20490;-74
2021/01/06 03:14:59;;;;;;;0.00;0.00;;;;;;;;;;4975328;28;20030;-75
2021/01/06 03:17:25;;;;;;;0.00;0.00;;;;;;;;;;4974804;28;20719;-75
2021/01/06 03:20:01;;;;;;;0.00;0.00;;;;;;;;;;4974239;28;20018;-72
2021/01/06 03:22:27;;;;;;;0.00;0.00;;;;;;;;;;4972184;28;20034;-74
2021/01/06 03:24:55;;;;;;;0.00;0.00;;;;;;;;;;4972567;28;20022;-73
2021/01/06 03:27:21;;;;;;;0.00;0.00;;;;;;;;;;4975550;28;20029;-75
2021/01/06 03:29:47;;;;;;;0.00;0.00;;;;;;;;;;4962014;28;20033;-76
2021/01/06 03:32:23;;;;;;;0.00;0.00;;;;;;;;;;4978143;28;20042;-75
2021/01/06 03:34:56;;;;;;;0.00;0.00;;;;;;;;;;4977073;28;20252;-74
2021/01/06 03:37:32;;;;;;;0.00;0.00;;;;;;;;;;4960792;28;20402;-74
2021/01/06 03:40:07;;;;;;;0.00;0.00;;;;;;;;;;4972467;28;20119;-75
2021/01/06 03:42:33;;;;;;;0.00;0.00;;;;;;;;;;4956357;28;20038;-75
2021/01/06 03:45:00;;;;;;;0.00;0.00;;;;;;;;;;4975154;28;20561;-75
2021/01/06 03:47:30;;;;;;;0.00;0.00;;;;;;;;;;4977215;28;20758;-74
2021/01/06 03:50:10;;;;;;;0.10;0.10;;;;;;;;;;4975837;28;20568;-75
2021/01/06 03:52:48;;;;;;;0.00;0.00;;;;;;;;;;4959751;28;20041;-76
2021/01/06 03:55:35;;;;;;;0.00;0.00;;;;;;;;;;4975562;28;20501;-73
2021/01/06 03:58:03;;;;;;;0.00;0.00;;;;;;;;;;4945907;28;20377;-74
2021/01/06 04:00:46;;;;;;;0.00;0.00;;;;;;;;;;4976211;28;20033;-75
2021/01/06 04:03:24;;;;;;;0.00;0.00;;;;;;;;;;4960440;28;20030;-75
2021/01/06 04:05:51;;;;;;;0.00;0.00;;;;;;;;;;4976515;28;20257;-74
2021/01/06 04:08:21;;;;;;;0.00;0.00;;;;;;;;;;4975638;28;20033;-74
2021/01/06 04:10:51;;;;;;;0.00;0.00;;;;;;;;;;4975483;28;20061;-74
2021/01/06 04:13:16;;;;;;;0.00;0.00;;;;;;;;;;4975580;28;20380;-73
2021/01/06 04:15:42;;;;;;;0.00;0.00;;;;;;;;;;4978117;28;21623;-74
2021/01/06 04:18:08;;;;;;;0.00;0.00;;;;;;;;;;4978794;28;20514;-74
2021/01/06 04:20:37;;;;;;;0.10;0.10;;;;;;;;;;4978195;28;20665;-73
2021/01/06 04:23:05;;;;;;;0.00;0.00;;;;;;;;;;4960004;28;20442;-76
2021/01/06 04:25:35;;;;;;;0.00;0.00;;;;;;;;;;4978308;28;20029;-72
2021/01/06 04:28:00;;;;;;;0.00;0.00;;;;;;;;;;4963866;28;20049;-74
2021/01/06 04:30:26;;;;;;;0.00;0.00;;;;;;;;;;4975175;28;20489;-74
2021/01/06 04:32:52;;;;;;;0.00;0.00;;;;;;;;;;4975045;28;20772;-74
2021/01/06 04:35:17;;;;;;;0.00;0.00;;;;;;;;;;4958640;28;20033;-74
2021/01/06 04:37:43;;;;;;;1.20;0.80;;;;;;;;;;4975786;28;22401;-73
2021/01/06 04:40:09;;;;;;;0.00;0.00;;;;;;;;;;4975051;28;20369;-75
2021/01/06 04:42:36;;;;;;;0.00;0.00;;;;;;;;;;4960449;28;20661;-75
2021/01/06 04:45:19;;;;;;;0.00;0.00;;;;;;;;;;4976267;28;20061;-75
2021/01/06 04:47:55;;;;;;;0.20;0.20;;;;;;;;;;4975566;28;20044;-73
2021/01/06 04:50:39;;;;;;;0.00;0.00;;;;;;;;;;4975969;28;20029;-73
2021/01/06 04:53:24;;;;;;;0.00;0.00;;;;;;;;;;4973955;28;20064;-73
2021/01/06 04:56:07;;;;;;;0.00;0.00;;;;;;;;;;4963982;28;20038;-73
2021/01/06 04:58:38;;;;;;;0.00;0.00;;;;;;;;;;4975449;28;20037;-74
2021/01/06 05:01:10;;;;;;;0.00;0.00;;;;;;;;;;4973550;28;20034;-73
2021/01/06 05:04:01;;;;;;;0.00;0.00;;;;;;;;;;4973396;28;22243;-74
2021/01/06 05:06:49;;;;;;;0.00;0.00;;;;;;;;;;4973861;28;20037;-74
2021/01/06 05:09:24;;;;;;;0.00;0.00;;;;;;;;;;4962532;28;20565;-74
2021/01/06 05:12:09;;;;;;;0.00;0.00;;;;;;;;;;4973035;28;20046;-73
2021/01/06 05:15:02;;;;;;;0.00;0.00;;;;;;;;;;4972268;28;20026;-73
2021/01/06 05:17:29;;;;;;;0.00;0.00;;;;;;;;;;4946471;28;20043;-74
2021/01/06 05:19:55;;;;;;;0.00;0.00;;;;;;;;;;4974311;28;20049;-74
2021/01/06 05:22:21;;;;;;;0.10;0.10;;;;;;;;;;4954668;28;20064;-75
2021/01/06 05:24:47;;;;;;;0.00;0.00;;;;;;;;;;4973645;28;20478;-72
2021/01/06 05:27:13;;;;;;;0.00;0.00;;;;;;;;;;4976984;28;20104;-73
2021/01/06 05:29:40;;;;;;;0.00;0.00;;;;;;;;;;4973752;28;20084;-73
2021/01/06 05:32:05;;;;;;;0.00;0.00;;;;;;;;;;4975894;28;20029;-73
2021/01/06 05:34:34;;;;;;;0.00;0.00;;;;;;;;;;4975659;28;20623;-73
2021/01/06 05:37:00;;;;;;;0.00;0.00;;;;;;;;;;4972445;28;20058;-73
2021/01/06 05:39:28;;;;;;;0.00;0.00;;;;;;;;;;4974173;28;20025;-74
2021/01/06 05:42:04;;;;;;;0.00;0.00;;;;;;;;;;4973515;28;20146;-73
2021/01/06 05:44:31;;;;;;;0.00;0.00;;;;;;;;;;4978770;28;20234;-74
2021/01/06 05:46:57;;;;;;;0.00;0.00;;;;;;;;;;4979202;28;20054;-74
2021/01/06 05:49:24;;;;;;;0.00;0.00;;;;;;;;;;4963138;28;20049;-73
2021/01/06 05:51:51;;;;;;;0.00;0.00;;;;;;;;;;4975956;28;20029;-73
2021/01/06 05:54:24;;;;;;;0.00;0.00;;;;;;;;;;4975856;28;20084;-75
2021/01/06 05:56:56;;;;;;;0.00;0.00;;;;;;;;;;4976666;28;20053;-74
2021/01/06 05:59:41;;;;;;;0.00;0.00;;;;;;;;;;4977725;28;20192;-73
2021/01/06 06:02:19;;;;;;;0.00;0.00;;;;;;;;;;4977427;28;20149;-74
2021/01/06 06:05:03;;;;;;;1.95;1.08;;;;;;;;;;4977545;28;20037;-73
2021/01/06 06:07:34;;;;;;;0.13;0.13;;;;;;;;;;4962613;28;20057;-73
2021/01/06 06:10:04;;;;;;;0.00;0.00;;;;;;;;;;4971676;28;20319;-73
2021/01/06 06:12:48;;;;;;;0.00;0.00;;;;;;;;;;4970882;28;20509;-73
2021/01/06 06:15:14;;;;;;;0.00;0.00;;;;;;;;;;4969640;28;20108;-73
2021/01/06 06:17:51;;;;;;;0.00;0.00;;;;;;;;;;4974250;28;20153;-73
2021/01/06 06:20:31;;;;;;;0.00;0.00;;;;;;;;;;4950909;28;20322;-74
2021/01/06 06:23:09;;;;;;;0.00;0.00;;;;;;;;;;4976243;28;20030;-75
2021/01/06 06:25:37;;;;;;;0.00;0.00;;;;;;;;;;4975993;28;20043;-73
2021/01/06 06:28:22;;;;;;;0.00;0.00;;;;;;;;;;4975906;28;20670;-73
2021/01/06 06:30:51;;;;;;;0.00;0.00;;;;;;;;;;4961715;28;20484;-72
2021/01/06 06:33:33;;;;;;;0.00;0.00;;;;;;;;;;4963575;28;20684;-74
2021/01/06 06:36:00;;;;;;;0.00;0.00;;;;;;;;;;4973995;28;20041;-72
2021/01/06 06:38:34;;;;;;;0.00;0.00;;;;;;;;;;4972636;28;20060;-72
2021/01/06 06:41:06;;;;;;;0.00;0.00;;;;;;;;;;4976379;28;20025;-71
2021/01/06 06:43:40;;;;;;;0.00;0.00;;;;;;;;;;4976276;28;21326;-73
2021/01/06 06:46:11;;;;;;;0.00;0.00;;;;;;;;;;4972199;28;20125;-72
2021/01/06 06:48:42;;;;;;;0.00;0.00;;;;;;;;;;4957808;28;20052;-72
2021/01/06 06:51:22;;;;;;;0.00;0.00;;;;;;;;;;4971247;28;20150;-72
2021/01/06 06:53:48;;;;;;;0.00;0.00;;;;;;;;;;4956357;28;20410;-73
2021/01/06 06:56:26;;;;;;;0.00;0.00;;;;;;;;;;4972136;28;20040;-73
2021/01/06 06:59:02;;;;;;;0.00;0.00;;;;;;;;;;4968636;28;20040;-73
2021/01/06 07:01:39;;;;;;;0.00;0.00;;;;;;;;;;4960908;28;22321;-72
2021/01/06 07:04:21;;;;;;;0.30;0.30;;;;;;;;;;4959168;28;20317;-72
2021/01/06 07:06:57;;;;;;;0.00;0.00;;;;;;;;;;4973213;28;21230;-73
2021/01/06 07:09:31;;;;;;;0.00;0.00;;;;;;;;;;4958346;28;20037;-72
2021/01/06 07:11:59;;;;;;;0.00;0.00;;;;;;;;;;4969866;28;21626;-72
2021/01/06 07:14:28;;;;;;;0.00;0.00;;;;;;;;;;4964060;28;20033;-72
2021/01/06 07:16:59;;;;;;;0.00;0.00;;;;;;;;;;4968298;28;20092;-72
2021/01/06 07:19:24;;;;;;;0.00;0.00;;;;;;;;;;4965854;28;20069;-73
2021/01/06 07:21:53;;;;;;;0.00;0.00;;;;;;;;;;4973021;28;20125;-73
2021/01/06 07:24:20;;;;;;;0.00;0.00;;;;;;;;;;4969080;28;20441;-72
2021/01/06 07:26:51;;;;;;;0.00;0.00;;;;;;;;;;4964564;28;20033;-74
2021/01/06 07:29:18;;;;;;;0.00;0.00;;;;;;;;;;4962702;28;20191;-73
2021/01/06 07:32:09;;;;;;;0.00;0.00;;;;;;;;;;4978270;28;20452;-73
2021/01/06 07:34:44;;;;;;;0.00;0.00;;;;;;;;;;4952526;28;20030;-73
2021/01/06 07:37:29;;;;;;;0.00;0.00;;;;;;;;;;4968529;28;20041;-73
2021/01/06 07:39:59;;;;;;;0.00;0.00;;;;;;;;;;4949776;28;20536;-73
2021/01/06 07:42:38;;;;;;;0.00;0.00;;;;;;;;;;4949131;28;20031;-72
2021/01/06 07:45:20;;;;;;;0.00;0.00;;;;;;;;;;4963553;28;20041;-72
2021/01/06 07:47:52;;;;;;;0.00;0.00;;;;;;;;;;4948380;28;20317;-73
2021/01/06 07:50:22;;;;;;;0.00;0.00;;;;;;;;;;4933797;28;20030;-72
2021/01/06 07:52:50;;;;;;;0.00;0.00;;;;;;;;;;4933985;28;20034;-72
2021/01/06 07:55:16;;;;;;;0.00;0.00;;;;;;;;;;4943890;28;20042;-73
2021/01/06 07:57:43;;;;;;;0.00;0.00;;;;;;;;;;4923772;28;21046;-72
2021/01/06 08:00:25;;;;;;;0.00;0.00;;;;;;;;;;4955208;28;20027;-72
2021/01/06 08:02:57;;;;;;;0.00;0.00;;;;;;;;;;4955826;28;20109;-72
2021/01/06 08:05:23;;;;;;;0.00;0.00;;;;;;;;;;4951057;28;20038;-72
2021/01/06 08:07:51;;;;;;;0.00;0.00;;;;;;;;;;4953326;28;20418;-73
2021/01/06 08:10:24;;;;;;;0.00;0.00;;;;;;;;;;4950297;28;20034;-74
2021/01/06 08:12:51;;;;;;;0.00;0.00;;;;;;;;;;4946850;28;20057;-72
2021/01/06 08:15:28;;;;;;;0.00;0.00;;;;;;;;;;4933586;28;20031;-73
2021/01/06 08:17:56;;;;;;;0.00;0.00;;;;;;;;;;4950809;28;20053;-73
2021/01/06 08:20:27;;;;;;;0.00;0.00;;;;;;;;;;4951369;28;20137;-73
2021/01/06 08:22:53;;;;;;;0.00;0.00;;;;;;;;;;4950045;28;20148;-73
2021/01/06 08:25:21;;;;;;;0.00;0.00;;;;;;;;;;4955225;28;20039;-74
2021/01/06 08:27:46;;;;;;;0.00;0.00;;;;;;;;;;4949679;28;20038;-74
2021/01/06 08:30:15;;;;;;;0.00;0.00;;;;;;;;;;4943460;28;20410;-73
2021/01/06 08:32:40;;;;;;;0.00;0.00;;;;;;;;;;4940307;28;20041;-73
2021/01/06 08:35:09;;;;;;;0.00;0.00;;;;;;;;;;4948660;28;20043;-74
2021/01/06 08:37:39;;;;;;;0.00;0.00;;;;;;;;;;4948171;28;20038;-74
2021/01/06 08:40:06;;;;;;;0.00;0.00;;;;;;;;;;4933690;28;21608;-73
2021/01/06 08:42:38;;;;;;;0.00;0.00;;;;;;;;;;4936285;28;20434;-73
2021/01/06 08:45:05;;;;;;;0.00;0.00;;;;;;;;;;4933178;28;20045;-73
2021/01/06 08:47:38;;;;;;;0.00;0.00;;;;;;;;;;4963040;28;20064;-73
2021/01/06 08:50:24;;;;;;;0.00;0.00;;;;;;;;;;4961340;28;20030;-73
2021/01/06 08:52:49;;;;;;;0.00;0.00;;;;;;;;;;4964480;28;20050;-74
2021/01/06 08:55:21;;;;;;;0.00;0.00;;;;;;;;;;4967799;28;20037;-74
2021/01/06 08:57:55;;;;;;;0.00;0.00;;;;;;;;;;4966336;28;20037;-73
2021/01/06 09:00:22;;;;;;;0.00;0.00;;;;;;;;;;4960707;28;20196;-73
2021/01/06 09:03:01;;;;;;;0.63;0.63;;;;;;;;;;4972589;28;20047;-73
2021/01/06 09:05:33;;;;;;;0.00;0.00;;;;;;;;;;4965924;28;20786;-73
2021/01/06 09:08:00;;;;;;;0.00;0.00;;;;;;;;;;4948654;28;20048;-72
2021/01/06 09:10:36;;;;;;;0.00;0.00;;;;;;;;;;4964436;28;20042;-73
2021/01/06 09:13:09;;;;;;;0.00;0.00;;;;;;;;;;4962858;28;20037;-73
2021/01/06 09:15:44;;;;;;;0.00;0.00;;;;;;;;;;4963160;28;20029;-72
2021/01/06 09:18:13;;;;;;;0.13;0.13;;;;;;;;;;4948220;28;22104;-73
2021/01/06 09:20:52;;;;;;;0.00;0.00;;;;;;;;;;4950112;28;20057;-73
2021/01/06 09:23:18;;;;;;;0.00;0.00;;;;;;;;;;4963223;28;20071;-71
2021/01/06 09:25:44;;;;;;;0.00;0.00;;;;;;;;;;4964787;28;20092;-72
2021/01/06 09:28:12;;;;;;;0.00;0.00;;;;;;;;;;4952833;28;20060;-72
2021/01/06 09:30:38;;;;;;;0.00;0.00;;;;;;;;;;4962234;28;20034;-72
2021/01/06 09:33:11;;;;;;;0.00;0.00;;;;;;;;;;4961326;28;20033;-72
2021/01/06 09:35:38;;;;;;;0.00;0.00;;;;;;;;;;4964445;28;20077;-73
2021/01/06 09:38:14;;;;;;;0.00;0.00;;;;;;;;;;4969313;28;20040;-71
2021/01/06 09:40:41;;;;;;;0.00;0.00;;;;;;;;;;4962838;28;20028;-73
2021/01/06 09:43:13;;;;;;;0.00;0.00;;;;;;;;;;4959612;28;20056;-73
2021/01/06 09:46:07;;;;;;;0.00;0.00;;;;;;;;;;4963788;28;20100;-75
2021/01/06 09:48:33;;;;;;;0.00;0.00;;;;;;;;;;4965361;28;20414;-71
2021/01/06 09:51:01;;;;;;;0.00;0.00;;;;;;;;;;4963004;28;21127;-76
2021/01/06 09:53:28;;;;;;;0.00;0.00;;;;;;;;;;4947439;28;20043;-72
2021/01/06 09:55:55;;;;;;;0.00;0.00;;;;;;;;;;4966632;28;20025;-75
2021/01/06 09:58:35;;;;;;;0.00;0.00;;;;;;;;;;4964756;28;20090;-75
2021/01/06 10:01:15;;;;;;;0.00;0.00;;;;;;;;;;4973237;28;20026;-76
2021/01/06 10:03:42;;;;;;;0.00;0.00;;;;;;;;;;4970083;28;20034;-74
2021/01/06 10:06:21;;;;;;;0.00;0.00;;;;;;;;;;4967399;28;20041;-77
2021/01/06 10:08:51;;;;;;;0.00;0.00;;;;;;;;;;4964557;28;20528;-75
2021/01/06 10:11:36;;;;;;;0.00;0.00;;;;;;;;;;4946948;28;20026;-75
2021/01/06 10:14:21;;;;;;;0.00;0.00;;;;;;;;;;4950450;28;20038;-75
2021/01/06 10:16:56;;;;;;;0.00;0.00;;;;;;;;;;4962906;28;20520;-75
2021/01/06 10:19:34;;;;;;;0.00;0.00;;;;;;;;;;4959890;28;20038;-74
2021/01/06 10:22:19;;;;;;;0.00;0.00;;;;;;;;;;4963444;28;20030;-74
2021/01/06 10:25:08;;;;;;;0.47;0.47;;;;;;;;;;4969032;28;20437;-75
2021/01/06 10:27:36;;;;;;;0.00;0.00;;;;;;;;;;4969006;28;20317;-75
2021/01/06 10:30:13;;;;;;;0.00;0.00;;;;;;;;;;4978233;28;20038;-74
2021/01/06 10:32:44;;;;;;;0.00;0.00;;;;;;;;;;4974921;28;20080;-76
2021/01/06 10:35:28;;;;;;;0.00;0.00;;;;;;;;;;4953585;28;20050;-74
2021/01/06 10:37:54;;;;;;;0.00;0.00;;;;;;;;;;4971240;28;20037;-76
2021/01/06 10:40:30;;;;;;;0.00;0.00;;;;;;;;;;4966688;28;20763;-76
2021/01/06 10:42:55;;;;;;;0.10;0.10;;;;;;;;;;4962539;28;20100;-76
2021/01/06 10:45:26;;;;;;;0.00;0.00;;;;;;;;;;4954596;28;20662;-75
2021/01/06 10:47:52;;;;;;;0.00;0.00;;;;;;;;;;4970013;28;20082;-75
2021/01/06 10:50:24;;;;;;;0.00;0.00;;;;;;;;;;4968305;28;20374;-75
2021/01/06 10:52:52;;;;;;;0.00;0.00;;;;;;;;;;4952954;28;20041;-75
2021/01/06 10:55:22;;;;;;;0.00;0.00;;;;;;;;;;4968478;28;20049;-75
2021/01/06 10:57:57;;;;;;;0.00;0.00;;;;;;;;;;4966401;28;21078;-76
2021/01/06 11:00:26;;;;;;;0.10;0.10;;;;;;;;;;4975833;28;20030;-74
2021/01/06 11:03:09;;;;;;;0.00;0.00;;;;;;;;;;4980243;28;21010;-76
2021/01/06 11:05:38;;;;;;;0.00;0.00;;;;;;;;;;4963436;28;20026;-76
2021/01/06 11:08:16;;;;;;;0.00;0.00;;;;;;;;;;4946922;28;20486;-76
2021/01/06 11:11:03;;;;;;;0.00;0.00;;;;;;;;;;4964690;28;20026;-75
2021/01/06 11:13:47;;;;;;;0.00;0.00;;;;;;;;;;4967030;28;21117;-75
2021/01/06 11:16:27;;;;;;;0.10;0.10;;;;;;;;;;4969032;28;20173;-75
2021/01/06 11:18:56;;;;;;;0.00;0.00;;;;;;;;;;4974509;28;20037;-75
2021/01/06 11:21:39;;;;;;;0.55;0.52;;;;;;;;;;4975685;28;20025;-72
2021/01/06 11:24:24;;;;;;;0.00;0.00;;;;;;;;;;4975655;28;20037;-75
2021/01/06 11:26:51;;;;;;;0.00;0.00;;;;;;;;;;4976790;28;20025;-74
2021/01/06 11:29:45;;;;;;;0.10;0.10;;;;;;;;;;4963725;28;20480;-75
2021/01/06 11:32:14;;;;;;;0.00;0.00;;;;;;;;;;4978444;28;20553;-76
2021/01/06 11:34:43;;;;;;;0.00;0.00;;;;;;;;;;4978330;28;20446;-75
2021/01/06 11:37:28;;;;;;;0.00;0.00;;;;;;;;;;4977158;28;20026;-76
2021/01/06 11:39:53;;;;;;;0.00;0.00;;;;;;;;;;4962168;28;21096;-76
2021/01/06 11:42:20;;;;;;;0.00;0.00;;;;;;;;;;4965377;28;20030;-75
2021/01/06 11:45:05;;;;;;;0.00;0.00;;;;;;;;;;4979156;28;20672;-75
2021/01/06 11:47:37;;;;;;;0.00;0.00;;;;;;;;;;4980337;28;20042;-75
2021/01/06 11:50:15;;;;;;;0.00;0.00;;;;;;;;;;4980830;28;20034;-75
2021/01/06 11:52:43;;;;;;;0.00;0.00;;;;;;;;;;4977448;28;20034;-74
2021/01/06 11:55:24;;;;;;;0.00;0.00;;;;;;;;;;4974042;28;20759;-74
2021/01/06 11:58:09;;;;;;;0.00;0.00;;;;;;;;;;4975292;28;20054;-74
2021/01/06 12:00:41;;;;;;;0.32;0.32;;;;;;;;;;4977550;28;20065;-74
2021/01/06 12:03:06;;;;;;;0.00;0.00;;;;;;;;;;4978854;28;20676;-76
2021/01/06 12:05:39;;;;;;;0.00;0.00;;;;;;;;;;4976040;28;20032;-75
2021/01/06 12:08:17;;;;;;;0.00;0.00;;;;;;;;;;4971441;28;20045;-76
2021/01/06 12:11:02;;;;;;;0.00;0.00;;;;;;;;;;4977309;28;20125;-73
2021/01/06 12:13:39;;;;;;;0.00;0.00;;;;;;;;;;4963924;28;20038;-73
2021/01/06 12:16:19;;;;;;;0.00;0.00;;;;;;;;;;4977809;28;20450;-73
2021/01/06 12:19:01;;;;;;;0.00;0.00;;;;;;;;;;4977903;28;20123;-71
2021/01/06 12:21:35;;;;;;;0.00;0.00;;;;;;;;;;4976474;28;20038;-71
2021/01/06 12:24:19;;;;;;;0.00;0.00;;;;;;;;;;4985325;28;20102;-70
2021/01/06 12:26:51;;;;;;;0.00;0.00;;;;;;;;;;4976427;28;20044;-70
2021/01/06 12:29:19;;;;;;;0.00;0.00;;;;;;;;;;4978621;28;20057;-71
2021/01/06 12:31:57;;;;;;;0.00;0.00;;;;;;;;;;4978523;28;20038;-71
2021/01/06 12:34:27;;;;;;;0.00;0.00;;;;;;;;;;4963672;28;20048;-71
2021/01/06 12:37:10;;;;;;;0.00;0.00;;;;;;;;;;4979588;28;20045;-73
2021/01/06 12:39:44;;;;;;;0.00;0.00;;;;;;;;;;4979242;28;20117;-71
2021/01/06 12:42:13;;;;;;;0.00;0.00;;;;;;;;;;4977270;28;20459;-71
2021/01/06 12:44:52;;;;;;;0.00;0.00;;;;;;;;;;4975780;28;20033;-70
2021/01/06 12:47:24;;;;;;;0.00;0.00;;;;;;;;;;4960475;28;20056;-71
2021/01/06 12:49:58;;;;;;;0.00;0.00;;;;;;;;;;4968395;28;20027;-70
2021/01/06 12:52:36;;;;;;;0.00;0.00;;;;;;;;;;4960836;28;20062;-72
2021/01/06 12:55:05;;;;;;;0.00;0.00;;;;;;;;;;4974810;28;20172;-72
2021/01/06 12:57:38;;;;;;;0.00;0.00;;;;;;;;;;4962357;28;20026;-72
2021/01/06 13:00:06;;;;;;;1.00;0.80;;;;;;;;;;4974990;28;20041;-73
2021/01/06 13:02:36;;;;;;;0.10;0.10;;;;;;;;;;4976322;28;20687;-72
2021/01/06 13:05:11;;;;;;;0.00;0.00;;;;;;;;;;4973856;28;20032;-71
2021/01/06 13:07:38;;;;;;;0.00;0.00;;;;;;;;;;4975669;28;21058;-70
2021/01/06 13:10:03;;;;;;;0.43;0.15;;;;;;;;;;4975173;28;20334;-70
2021/01/06 13:12:47;;;;;;;0.00;0.00;;;;;;;;;;4956878;28;20101;-69
2021/01/06 13:15:31;;;;;;;0.00;0.00;;;;;;;;;;4974903;28;20031;-69
2021/01/06 13:18:00;;;;;;;0.15;0.15;;;;;;;;;;4974098;28;20036;-70
2021/01/06 13:20:38;;;;;;;0.00;0.00;;;;;;;;;;4967125;28;20046;-69
2021/01/06 13:23:13;;;;;;;0.00;0.00;;;;;;;;;;4973185;28;20226;-71
2021/01/06 13:25:41;;;;;;;0.00;0.00;;;;;;;;;;4973234;28;20033;-70
2021/01/06 13:28:27;;;;;;;0.00;0.00;;;;;;;;;;4975562;28;20512;-69
2021/01/06 13:31:08;;;;;;;0.00;0.00;;;;;;;;;;4961619;28;20138;-70
2021/01/06 13:33:42;;;;;;;0.00;0.00;;;;;;;;;;4973295;28;20789;-69
2021/01/06 13:36:17;;;;;;;0.00;0.00;;;;;;;;;;4975713;28;20169;-70
2021/01/06 13:39:05;;;;;;;0.00;0.00;;;;;;;;;;4974783;28;20126;-70
2021/01/06 13:41:31;;;;;;;0.00;0.00;;;;;;;;;;4974736;28;20053;-69
2021/01/06 13:44:17;;;;;;;0.00;0.00;;;;;;;;;;4974759;28;20034;-69
2021/01/06 13:46:54;;;;;;;0.00;0.00;;;;;;;;;;4970829;28;20607;-70
2021/01/06 13:49:28;;;;;;;0.00;0.00;;;;;;;;;;4949496;28;20035;-70
2021/01/06 13:52:06;;;;;;;0.00;0.00;;;;;;;;;;4955351;28;20031;-70
2021/01/06 13:54:34;;;;;;;0.00;0.00;;;;;;;;;;4959059;28;20042;-70
2021/01/06 13:57:05;;;;;;;0.00;0.00;;;;;;;;;;4973119;28;20484;-70
2021/01/06 13:59:36;;;;;;;0.00;0.00;;;;;;;;;;4962026;28;20789;-70
2021/01/06 14:02:12;;;;;;;0.00;0.00;;;;;;;;;;4973658;28;20022;-71
2021/01/06 14:04:51;;;;;;;0.00;0.00;;;;;;;;;;4960788;28;20106;-70
2021/01/06 14:07:40;;;;;;;0.00;0.00;;;;;;;;;;4977709;28;20072;-71
2021/01/06 14:10:05;;;;;;;0.00;0.00;;;;;;;;;;4978102;28;20084;-69
2021/01/06 14:12:40;;;;;;;0.00;0.00;;;;;;;;;;4978522;28;20514;-71
2021/01/06 14:15:16;;;;;;;0.00;0.00;;;;;;;;;;4963457;28;20398;-70
2021/01/06 14:17:48;;;;;;;0.00;0.00;;;;;;;;;;4977642;28;20033;-71
2021/01/06 14:20:16;;;;;;;0.00;0.00;;;;;;;;;;4979174;28;20037;-70
2021/01/06 14:22:45;;;;;;;0.00;0.00;;;;;;;;;;4975600;28;20466;-70
2021/01/06 14:25:23;;;;;;;0.00;0.00;;;;;;;;;;4964087;28;20526;-70
2021/01/06 14:27:50;;;;;;;0.00;0.00;;;;;;;;;;4975657;28;20048;-71
2021/01/06 14:30:19;;;;;;;0.00;0.00;;;;;;;;;;4977935;28;20695;-70
2021/01/06 14:32:57;;;;;;;0.00;0.00;;;;;;;;;;4977815;28;20037;-71
2021/01/06 14:35:43;;;;;;;0.00;0.00;;;;;;;;;;4963218;28;20038;-70
2021/01/06 14:38:24;;;;;;;0.00;0.00;;;;;;;;;;4974041;28;20029;-71
2021/01/06 14:41:02;;;;;;;0.00;0.00;;;;;;;;;;4962048;28;21705;-71
2021/01/06 14:43:28;;;;;;;0.00;0.00;;;;;;;;;;4974958;28;20041;-72
2021/01/06 14:45:57;;;;;;;0.00;0.00;;;;;;;;;;4976228;28;20034;-70
2021/01/06 14:48:30;;;;;;;0.00;0.00;;;;;;;;;;4977782;28;20073;-70
2021/01/06 14:51:02;;;;;;;0.13;0.13;;;;;;;;;;4976739;28;20061;-70
2021/01/06 14:53:31;;;;;;;0.00;0.00;;;;;;;;;;4978253;28;20044;-71
2021/01/06 14:56:17;;;;;;;0.00;0.00;;;;;;;;;;4977081;28;20054;-71
2021/01/06 14:58:51;;;;;;;0.00;0.00;;;;;;;;;;4977146;28;20026;-71
2021/01/06 15:01:22;;;;;;;0.00;0.00;;;;;;;;;;4962791;28;20042;-71
2021/01/06 15:04:29;;;;;;;0.00;0.00;;;;;;;;;;4963405;28;21652;-71
2021/01/06 15:07:05;;;;;;;0.00;0.00;;;;;;;;;;4888387;29;20048;-70
2021/01/06 15:09:42;;;;;;;0.00;0.00;;;;;;;;;;4875331;29;21741;-71
2021/01/06 15:12:28;;;;;;;0.00;0.00;;;;;;;;;;4941802;28;20042;-71
2021/01/06 15:14:58;;;;;;;0.00;0.00;;;;;;;;;;4967943;28;20390;-70